Time;durP1;ratioP1;P1;durP2;ratioP2;P2;SDS_P1;SDS_P2;PMS_P1;PMS_P2;Temp;Humidity;BMP_temperature;BMP_pressure;BME280_temperature;BME280_humidity;BME280_pressure;Samples;Min_cycle;Max_cycle;Signal;HPM_P1;HPM_P2
2022/09/14 00:00:23;;;;;;;4.07;3.33;;;17.80;99.90;;;;;;5017267;28;20219;-63
2022/09/14 00:02:49;;;;;;;6.40;3.50;;;17.80;99.90;;;;;;5028997;28;20187;-63
2022/09/14 00:05:15;;;;;;;5.63;3.55;;;17.80;99.90;;;;;;5024051;28;20257;-65
2022/09/14 00:07:40;;;;;;;9.73;3.70;;;17.80;99.90;;;;;;5028960;28;20190;-64
2022/09/14 00:10:06;;;;;;;6.82;4.35;;;17.70;99.90;;;;;;5018478;28;20191;-64
2022/09/14 00:12:32;;;;;;;9.07;4.75;;;17.70;99.90;;;;;;5028535;28;20255;-64
2022/09/14 00:14:58;;;;;;;3.92;3.22;;;17.80;99.90;;;;;;5049595;28;20214;-63
2022/09/14 00:17:24;;;;;;;3.83;3.50;;;17.80;99.90;;;;;;5031804;28;20194;-63
2022/09/14 00:19:49;;;;;;;7.70;3.90;;;17.70;99.90;;;;;;5020922;28;20618;-64
2022/09/14 00:22:15;;;;;;;6.03;3.72;;;17.80;99.90;;;;;;5023487;28;20218;-63
2022/09/14 00:24:40;;;;;;;5.53;3.80;;;17.70;99.90;;;;;;5021762;28;20245;-63
2022/09/14 00:27:06;;;;;;;3.63;2.83;;;17.60;99.90;;;;;;5011891;28;20201;-64
2022/09/14 00:29:32;;;;;;;6.22;2.80;;;17.80;99.90;;;;;;5013314;28;20183;-64
2022/09/14 00:31:58;;;;;;;5.20;3.20;;;17.80;99.90;;;;;;5013176;28;20196;-65
2022/09/14 00:34:24;;;;;;;4.68;3.85;;;17.80;99.90;;;;;;5012659;28;20191;-64
2022/09/14 00:36:51;;;;;;;3.53;3.17;;;17.90;99.90;;;;;;5026721;28;20228;-64
2022/09/14 00:39:19;;;;;;;7.30;3.00;;;17.90;99.90;;;;;;5027355;28;20186;-64
2022/09/14 00:41:47;;;;;;;9.80;3.45;;;17.80;99.90;;;;;;5013669;28;20199;-65
2022/09/14 00:44:13;;;;;;;4.65;2.92;;;17.70;99.90;;;;;;5014756;28;20242;-64
2022/09/14 00:46:44;;;;;;;3.05;2.22;;;17.60;99.90;;;;;;5021798;28;20180;-64
2022/09/14 00:49:15;;;;;;;7.75;3.05;;;17.60;99.90;;;;;;5012926;28;20202;-64
2022/09/14 00:52:08;;;;;;;6.18;2.55;;;17.80;99.90;;;;;;5013371;28;20195;-65
2022/09/14 00:54:37;;;;;;;3.85;2.67;;;17.90;99.90;;;;;;5012638;28;20286;-65
2022/09/14 00:57:03;;;;;;;2.65;2.45;;;17.90;99.90;;;;;;5021729;28;20633;-65
2022/09/14 00:59:32;;;;;;;4.47;2.53;;;17.70;99.90;;;;;;5047772;28;20183;-64
2022/09/14 01:01:58;;;;;;;6.47;3.00;;;17.50;99.90;;;;;;5019942;28;20211;-64
2022/09/14 01:04:23;;;;;;;3.25;2.78;;;17.50;99.90;;;;;;5023787;28;20214;-64
2022/09/14 01:06:52;;;;;;;3.35;2.95;;;17.50;99.90;;;;;;5023636;28;20682;-64
2022/09/14 01:09:26;;;;;;;3.03;2.58;;;17.50;99.90;;;;;;5013119;28;20183;-67
2022/09/14 01:12:11;;;;;;;6.10;3.67;;;17.60;99.90;;;;;;5018053;28;20261;-64
2022/09/14 01:14:56;;;;;;;4.60;2.65;;;17.50;99.90;;;;;;5025822;28;20187;-65
2022/09/14 01:18:02;;;;;;;5.63;3.10;;;17.50;99.90;;;;;;5012851;28;20195;-65
2022/09/14 01:20:37;;;;;;;5.53;3.08;;;17.60;99.90;;;;;;5011978;28;20725;-64
2022/09/14 01:23:36;;;;;;;3.38;3.08;;;17.60;99.90;;;;;;5026764;28;20198;-64
2022/09/14 01:26:20;;;;;;;8.50;3.15;;;17.50;99.90;;;;;;5017028;28;20624;-64
2022/09/14 01:29:01;;;;;;;4.75;2.88;;;17.40;99.90;;;;;;5032928;28;20186;-65
2022/09/14 01:31:33;;;;;;;5.45;2.72;;;17.40;99.90;;;;;;5030208;28;20262;-65
2022/09/14 01:34:19;;;;;;;10.45;3.45;;;17.30;99.90;;;;;;5015993;28;20175;-65
2022/09/14 01:36:51;;;;;;;4.43;2.72;;;17.30;99.90;;;;;;5016506;28;20191;-64
2022/09/14 01:39:20;;;;;;;4.13;2.78;;;17.40;99.90;;;;;;5026744;28;20171;-64
2022/09/14 01:41:48;;;;;;;3.85;2.45;;;17.30;99.90;;;;;;5015827;28;20260;-64
2022/09/14 01:44:34;;;;;;;4.72;2.92;;;17.30;99.90;;;;;;5022827;28;20673;-65
2022/09/14 01:47:25;;;;;;;4.18;2.72;;;17.30;99.90;;;;;;5033969;28;20187;-65
2022/09/14 01:49:56;;;;;;;3.53;2.17;;;17.30;99.90;;;;;;5028766;28;20253;-64
2022/09/14 01:52:54;;;;;;;5.53;2.80;;;17.30;99.90;;;;;;5027091;28;20198;-64
2022/09/14 01:55:26;;;;;;;2.47;2.28;;;17.20;99.90;;;;;;5045203;28;20187;-64
2022/09/14 01:57:55;;;;;;;4.43;2.55;;;17.30;99.90;;;;;;5017544;28;20701;-64
2022/09/14 02:00:22;;;;;;;5.10;2.38;;;17.30;99.90;;;;;;5026412;28;20253;-64
2022/09/14 02:03:01;;;;;;;4.20;2.78;;;17.30;99.90;;;;;;5015233;28;20325;-64
2022/09/14 02:05:36;;;;;;;6.82;2.63;;;17.30;99.90;;;;;;5016967;28;20636;-64
2022/09/14 02:08:02;;;;;;;4.47;2.25;;;17.40;99.90;;;;;;5016544;28;20189;-64
2022/09/14 02:10:28;;;;;;;7.38;2.85;;;17.30;99.90;;;;;;5030478;28;20195;-64
2022/09/14 02:12:55;;;;;;;6.30;3.05;;;17.30;99.90;;;;;;5017944;28;20707;-65
2022/09/14 02:15:21;;;;;;;3.83;3.00;;;17.40;99.90;;;;;;5026413;28;20214;-65
2022/09/14 02:17:48;;;;;;;5.00;2.30;;;17.40;99.90;;;;;;5015290;28;20187;-65
2022/09/14 02:20:31;;;;;;;3.60;2.42;;;17.50;99.90;;;;;;5019035;28;20193;-65
2022/09/14 02:22:57;;;;;;;4.53;2.97;;;17.40;99.90;;;;;;5022341;28;20544;-64
2022/09/14 02:25:22;;;;;;;5.80;3.78;;;17.30;99.90;;;;;;5015180;28;20179;-65
2022/09/14 02:27:48;;;;;;;4.50;3.20;;;17.20;99.90;;;;;;5030379;28;20233;-65
2022/09/14 02:30:15;;;;;;;5.18;1.90;;;17.10;99.90;;;;;;5032713;28;20191;-64
2022/09/14 02:33:11;;;;;;;7.45;3.15;;;17.20;99.90;;;;;;5018283;28;20641;-64
2022/09/14 02:35:47;;;;;;;4.03;3.10;;;17.30;99.90;;;;;;5024330;28;20171;-65
2022/09/14 02:38:20;;;;;;;3.88;3.35;;;17.30;99.90;;;;;;5022721;28;20527;-65
2022/09/14 02:41:03;;;;;;;5.90;3.47;;;17.30;99.90;;;;;;5014886;28;20213;-65
2022/09/14 02:43:34;;;;;;;5.22;3.70;;;17.30;99.90;;;;;;5017358;28;20221;-65
2022/09/14 02:46:15;;;;;;;6.57;3.95;;;17.20;99.90;;;;;;5029480;28;20197;-65
2022/09/14 02:49:03;;;;;;;5.75;3.45;;;17.30;99.90;;;;;;5025411;28;20182;-65
2022/09/14 02:51:44;;;;;;;6.20;3.97;;;17.30;99.90;;;;;;5014153;28;20178;-65
2022/09/14 02:54:23;;;;;;;4.57;3.47;;;17.10;99.90;;;;;;5013562;28;20262;-65
2022/09/14 02:56:49;;;;;;;6.95;4.20;;;17.00;99.90;;;;;;5016700;28;20179;-65
2022/09/14 02:59:15;;;;;;;6.97;3.67;;;16.90;99.90;;;;;;5029352;28;20240;-65
2022/09/14 03:01:41;;;;;;;9.90;4.25;;;16.90;99.90;;;;;;5028252;28;20279;-65
2022/09/14 03:04:06;;;;;;;7.13;4.53;;;17.00;99.90;;;;;;5030443;28;20265;-65
2022/09/14 03:06:32;;;;;;;8.90;5.35;;;17.10;99.90;;;;;;5022342;28;20198;-65
2022/09/14 03:08:58;;;;;;;8.10;3.95;;;17.20;99.90;;;;;;5025080;28;20190;-65
2022/09/14 03:11:23;;;;;;;5.30;3.78;;;17.10;99.90;;;;;;5027408;28;20194;-65
2022/09/14 03:13:49;;;;;;;9.07;4.60;;;17.00;99.90;;;;;;5019298;28;20191;-65
2022/09/14 03:16:16;;;;;;;5.05;3.67;;;16.90;99.90;;;;;;5020842;28;20272;-65
2022/09/14 03:18:42;;;;;;;11.90;7.38;;;16.70;99.90;;;;;;5026409;28;20180;-65
2022/09/14 03:21:11;;;;;;;6.47;4.72;;;16.80;99.90;;;;;;5004094;28;20522;-65
2022/09/14 03:23:42;;;;;;;7.97;3.88;;;16.70;99.90;;;;;;5058313;28;20199;-65
2022/09/14 03:26:10;;;;;;;11.63;4.85;;;16.70;99.90;;;;;;5031155;28;20186;-65
2022/09/14 03:28:36;;;;;;;7.53;4.53;;;16.60;99.90;;;;;;5026827;28;20214;-65
2022/09/14 03:31:07;;;;;;;8.23;4.95;;;16.70;99.90;;;;;;5008403;28;20202;-65
2022/09/14 03:33:33;;;;;;;7.88;5.07;;;16.70;99.90;;;;;;5019446;28;20183;-65
2022/09/14 03:35:59;;;;;;;5.45;4.72;;;16.60;99.90;;;;;;5027025;28;20185;-65
2022/09/14 03:38:28;;;;;;;8.57;4.18;;;16.60;99.90;;;;;;5026726;28;20551;-65
2022/09/14 03:40:56;;;;;;;3.33;3.03;;;16.70;99.90;;;;;;5014310;28;20583;-64
2022/09/14 03:43:22;;;;;;;4.65;3.67;;;16.60;99.90;;;;;;5004034;28;20191;-64
2022/09/14 03:45:48;;;;;;;8.25;3.95;;;16.60;99.90;;;;;;5024779;28;20186;-65
2022/09/14 03:48:14;;;;;;;5.75;3.55;;;16.60;99.90;;;;;;5031097;28;20237;-65
2022/09/14 03:50:41;;;;;;;5.45;3.65;;;16.80;99.90;;;;;;5022585;28;20198;-65
2022/09/14 03:53:06;;;;;;;8.75;4.55;;;16.80;99.90;;;;;;5021445;28;20644;-64
2022/09/14 03:55:32;;;;;;;7.00;4.60;;;16.80;99.90;;;;;;5013083;28;20191;-64
2022/09/14 03:57:58;;;;;;;6.60;4.38;;;16.80;99.90;;;;;;5021770;28;20570;-65
2022/09/14 04:00:23;;;;;;;6.10;3.95;;;16.80;99.90;;;;;;5022278;28;20210;-65
2022/09/14 04:02:49;;;;;;;6.50;4.00;;;17.00;99.90;;;;;;5027898;28;20221;-65
2022/09/14 04:05:15;;;;;;;9.18;3.70;;;17.00;99.90;;;;;;5045557;28;20675;-65
2022/09/14 04:07:41;;;;;;;6.68;4.22;;;17.10;99.90;;;;;;5017936;28;20508;-65
2022/09/14 04:10:07;;;;;;;8.25;4.00;;;17.10;99.90;;;;;;5026357;28;20179;-65
2022/09/14 04:12:37;;;;;;;6.50;4.18;;;16.90;99.90;;;;;;5016921;28;20290;-65
2022/09/14 04:15:07;;;;;;;3.20;2.70;;;16.90;99.90;;;;;;5029706;28;20538;-65
2022/09/14 04:17:33;;;;;;;7.30;4.13;;;16.90;99.90;;;;;;5013850;28;20273;-64
2022/09/14 04:19:59;;;;;;;6.45;4.50;;;16.60;99.90;;;;;;5013609;28;20187;-64
2022/09/14 04:22:25;;;;;;;9.23;4.70;;;16.50;99.90;;;;;;5012890;28;20295;-64
2022/09/14 04:24:52;;;;;;;5.78;4.50;;;16.40;99.90;;;;;;5013709;28;20278;-64
2022/09/14 04:27:17;;;;;;;7.30;4.07;;;16.40;99.90;;;;;;4998718;28;20233;-64
2022/09/14 04:29:43;;;;;;;10.25;4.25;;;16.40;99.90;;;;;;5013499;28;20187;-64
2022/09/14 04:32:09;;;;;;;4.93;3.63;;;16.30;99.90;;;;;;5049326;28;20205;-64
2022/09/14 04:34:34;;;;;;;6.38;3.83;;;16.40;99.90;;;;;;5017479;28;20558;-64
2022/09/14 04:37:00;;;;;;;7.72;3.40;;;16.40;99.90;;;;;;5019710;28;20690;-64
2022/09/14 04:39:26;;;;;;;5.75;3.40;;;16.30;99.90;;;;;;5017629;28;20222;-64
2022/09/14 04:41:52;;;;;;;11.27;3.85;;;16.20;99.90;;;;;;5015168;28;20257;-65
2022/09/14 04:44:17;;;;;;;5.68;5.03;;;16.10;99.90;;;;;;5024305;28;20543;-65
2022/09/14 04:46:43;;;;;;;8.68;4.35;;;16.10;99.90;;;;;;5023467;28;20210;-65
2022/09/14 04:49:09;;;;;;;7.70;4.50;;;16.20;99.90;;;;;;5030565;28;20623;-65
2022/09/14 04:51:36;;;;;;;7.97;4.60;;;16.20;99.90;;;;;;5026696;28;20187;-65
2022/09/14 04:54:04;;;;;;;8.80;5.35;;;16.20;99.90;;;;;;5044586;28;20198;-64
2022/09/14 04:56:31;;;;;;;6.78;5.72;;;16.10;99.90;;;;;;5026920;28;20232;-65
2022/09/14 04:58:59;;;;;;;7.95;4.28;;;16.10;99.90;;;;;;5013386;28;20532;-65
2022/09/14 05:01:31;;;;;;;10.07;6.03;;;16.10;99.90;;;;;;5012477;28;20209;-65
2022/09/14 05:03:57;;;;;;;8.35;6.20;;;16.10;99.90;;;;;;5014335;28;20180;-64
2022/09/14 05:06:26;;;;;;;8.88;5.07;;;16.00;99.90;;;;;;5026177;28;20615;-65
2022/09/14 05:08:53;;;;;;;9.77;6.07;;;16.00;99.90;;;;;;5021292;28;20176;-65
2022/09/14 05:11:22;;;;;;;6.78;5.47;;;16.00;99.90;;;;;;5025547;28;20321;-66
2022/09/14 05:13:49;;;;;;;7.03;4.93;;;16.00;99.90;;;;;;5024932;28;20183;-65
2022/09/14 05:16:18;;;;;;;9.35;6.65;;;16.00;99.90;;;;;;5014995;28;20242;-65
2022/09/14 05:18:44;;;;;;;8.20;5.68;;;16.00;99.90;;;;;;5016689;28;20180;-65
2022/09/14 05:21:12;;;;;;;9.45;6.45;;;16.00;99.90;;;;;;5021326;28;20352;-65
2022/09/14 05:23:38;;;;;;;14.32;6.93;;;16.00;99.90;;;;;;5017605;28;20187;-64
2022/09/14 05:26:05;;;;;;;10.30;6.75;;;15.80;99.90;;;;;;5021100;28;20593;-64
2022/09/14 05:28:31;;;;;;;11.68;6.65;;;15.70;99.90;;;;;;5006226;28;20487;-67
2022/09/14 05:30:57;;;;;;;12.77;8.10;;;15.80;99.90;;;;;;5023087;28;20667;-67
2022/09/14 05:33:23;;;;;;;14.80;7.85;;;15.70;99.90;;;;;;5015735;28;20266;-67
2022/09/14 05:35:50;;;;;;;12.10;6.90;;;15.80;99.90;;;;;;5055266;28;20564;-66
2022/09/14 05:38:15;;;;;;;18.65;7.68;;;15.90;99.90;;;;;;5014607;28;20191;-67
2022/09/14 05:40:41;;;;;;;13.00;6.78;;;15.90;99.90;;;;;;5047302;28;20213;-67
2022/09/14 05:43:07;;;;;;;10.98;6.93;;;15.80;99.90;;;;;;5020893;28;20577;-66
2022/09/14 05:45:33;;;;;;;10.77;6.90;;;15.80;99.90;;;;;;5016225;28;20187;-69
2022/09/14 05:48:01;;;;;;;11.35;8.35;;;15.70;99.90;;;;;;5017069;28;20186;-62
2022/09/14 05:50:26;;;;;;;12.68;7.43;;;15.70;99.90;;;;;;5022384;28;20204;-61
2022/09/14 05:52:53;;;;;;;13.10;7.78;;;15.70;99.90;;;;;;5056436;28;20187;-62
2022/09/14 05:55:19;;;;;;;11.00;8.00;;;15.80;99.90;;;;;;5023284;28;20256;-63
2022/09/14 05:57:48;;;;;;;14.27;7.75;;;15.80;99.90;;;;;;5017585;28;20183;-63
2022/09/14 06:00:15;;;;;;;14.18;8.95;;;15.70;99.90;;;;;;5019479;28;20573;-64
2022/09/14 06:02:45;;;;;;;10.90;8.00;;;15.70;99.90;;;;;;5014857;28;20219;-63
2022/09/14 06:05:11;;;;;;;12.50;7.68;;;15.80;99.90;;;;;;5035888;28;20629;-63
2022/09/14 06:07:36;;;;;;;9.63;7.20;;;15.90;99.90;;;;;;5017862;28;20183;-64
2022/09/14 06:10:02;;;;;;;10.73;7.90;;;15.80;99.90;;;;;;5017502;28;20252;-64
2022/09/14 06:12:28;;;;;;;12.82;7.50;;;15.80;99.90;;;;;;5052663;28;20603;-64
2022/09/14 06:14:53;;;;;;;12.82;8.18;;;15.80;99.90;;;;;;5014548;28;20590;-63
2022/09/14 06:17:19;;;;;;;13.23;8.02;;;15.80;99.90;;;;;;5017127;28;20690;-63
2022/09/14 06:19:45;;;;;;;14.95;8.55;;;15.80;99.90;;;;;;5024525;28;20274;-62
2022/09/14 06:22:11;;;;;;;14.25;9.35;;;15.80;99.90;;;;;;5021393;28;20538;-63
2022/09/14 06:24:36;;;;;;;13.38;7.95;;;15.90;99.90;;;;;;5017020;28;20233;-64
2022/09/14 06:27:02;;;;;;;13.48;8.45;;;15.90;99.90;;;;;;5026386;28;20223;-63
2022/09/14 06:29:27;;;;;;;14.43;9.25;;;15.90;99.90;;;;;;5023969;28;20222;-62
2022/09/14 06:31:53;;;;;;;10.40;7.10;;;15.70;99.90;;;;;;5058015;28;20217;-63
2022/09/14 06:34:19;;;;;;;13.38;8.38;;;15.70;99.90;;;;;;5017352;28;20176;-61
2022/09/14 06:36:45;;;;;;;14.32;8.80;;;15.70;99.90;;;;;;5016582;28;20202;-64
2022/09/14 06:39:11;;;;;;;12.30;7.97;;;15.70;99.90;;;;;;5021221;28;20244;-63
2022/09/14 06:41:37;;;;;;;13.07;8.65;;;15.80;99.90;;;;;;5017400;28;20199;-63
2022/09/14 06:44:02;;;;;;;12.63;8.52;;;15.70;99.90;;;;;;5013013;28;20584;-63
2022/09/14 06:46:31;;;;;;;12.73;8.63;;;15.80;99.90;;;;;;5017416;28;20590;-63
2022/09/14 06:49:00;;;;;;;18.05;8.05;;;15.90;99.90;;;;;;5016672;28;20266;-63
2022/09/14 06:51:30;;;;;;;16.08;10.13;;;15.90;99.90;;;;;;5015032;28;20266;-63
2022/09/14 06:54:00;;;;;;;17.48;9.70;;;15.90;99.90;;;;;;5022381;28;20213;-64
2022/09/14 06:56:31;;;;;;;15.15;8.45;;;16.00;99.90;;;;;;5024019;28;20187;-63
2022/09/14 06:58:57;;;;;;;18.23;9.32;;;16.00;99.90;;;;;;5015053;28;20190;-64
2022/09/14 07:01:24;;;;;;;16.02;9.45;;;16.10;99.90;;;;;;5015898;28;20230;-65
2022/09/14 07:03:51;;;;;;;15.38;8.80;;;16.10;99.90;;;;;;5013435;28;20187;-64
2022/09/14 07:06:23;;;;;;;14.75;8.35;;;16.10;99.90;;;;;;5012788;28;20262;-64
2022/09/14 07:08:50;;;;;;;17.58;10.00;;;16.20;99.90;;;;;;5016780;28;20202;-64
2022/09/14 07:11:18;;;;;;;14.80;9.38;;;16.10;99.90;;;;;;5013621;28;20214;-64
2022/09/14 07:13:45;;;;;;;13.23;9.10;;;16.10;99.90;;;;;;5026225;28;20242;-64
2022/09/14 07:16:11;;;;;;;13.73;7.97;;;16.00;99.90;;;;;;5028119;28;20198;-63
2022/09/14 07:18:38;;;;;;;14.32;8.48;;;16.10;99.90;;;;;;5023382;28;20179;-64
2022/09/14 07:21:09;;;;;;;10.95;7.78;;;16.10;99.90;;;;;;5017748;28;20545;-63
2022/09/14 07:23:38;;;;;;;13.88;8.80;;;16.20;99.90;;;;;;5014530;28;20669;-64
2022/09/14 07:26:06;;;;;;;12.18;7.95;;;16.30;99.90;;;;;;5013821;28;20256;-64
2022/09/14 07:28:33;;;;;;;11.73;7.82;;;16.30;99.90;;;;;;5015221;28;20175;-64
2022/09/14 07:30:59;;;;;;;18.83;8.25;;;16.30;99.90;;;;;;5022336;28;20191;-64
2022/09/14 07:33:25;;;;;;;14.98;8.55;;;16.40;99.90;;;;;;5018649;28;20167;-62
2022/09/14 07:35:51;;;;;;;12.38;8.45;;;16.40;99.90;;;;;;5013525;28;20310;-62
2022/09/14 07:38:18;;;;;;;16.02;8.25;;;16.50;99.90;;;;;;5012095;28;20179;-64
2022/09/14 07:40:43;;;;;;;16.30;8.30;;;16.40;99.90;;;;;;5018481;28;20296;-64
2022/09/14 07:43:09;;;;;;;13.43;7.65;;;16.30;99.90;;;;;;5021717;28;20273;-64
2022/09/14 07:45:36;;;;;;;18.20;8.55;;;16.50;99.90;;;;;;5045545;28;20179;-65
2022/09/14 07:48:02;;;;;;;16.90;9.23;;;16.50;99.90;;;;;;5021729;28;20175;-64
2022/09/14 07:50:28;;;;;;;11.15;7.35;;;16.50;99.90;;;;;;5018270;28;20269;-64
2022/09/14 07:52:54;;;;;;;15.27;8.55;;;16.40;99.90;;;;;;5013717;28;20257;-64
2022/09/14 07:55:19;;;;;;;13.65;7.43;;;16.40;99.90;;;;;;5013352;28;20233;-64
2022/09/14 07:57:45;;;;;;;13.98;8.30;;;16.20;99.90;;;;;;5018203;28;20214;-64
2022/09/14 08:00:13;;;;;;;13.52;7.90;;;16.10;99.90;;;;;;5022250;28;20635;-64
2022/09/14 08:02:39;;;;;;;12.10;7.88;;;16.10;99.90;;;;;;5016105;28;20236;-64
2022/09/14 08:05:05;;;;;;;17.88;7.57;;;16.10;99.90;;;;;;5056826;28;20183;-64
2022/09/14 08:07:31;;;;;;;10.52;7.50;;;16.10;99.90;;;;;;5030030;28;20182;-64
2022/09/14 08:09:56;;;;;;;11.30;6.85;;;16.00;99.90;;;;;;5013331;28;20180;-64
2022/09/14 08:12:22;;;;;;;12.98;7.10;;;16.00;99.90;;;;;;5013218;28;20222;-65
2022/09/14 08:14:51;;;;;;;14.63;7.43;;;16.00;99.90;;;;;;5013098;28;20230;-65
2022/09/14 08:17:16;;;;;;;13.00;7.43;;;16.10;99.90;;;;;;5013019;28;20187;-65
2022/09/14 08:19:42;;;;;;;14.70;8.45;;;16.10;99.90;;;;;;5014425;28;20186;-65
2022/09/14 08:22:08;;;;;;;10.48;8.07;;;16.10;99.90;;;;;;5018823;28;20282;-65
2022/09/14 08:24:34;;;;;;;15.52;8.52;;;16.00;99.90;;;;;;5044571;28;20191;-65
2022/09/14 08:26:59;;;;;;;11.25;7.32;;;16.10;99.90;;;;;;5026675;28;20721;-65
2022/09/14 08:29:25;;;;;;;12.27;7.43;;;15.90;99.90;;;;;;5021725;28;20183;-65
2022/09/14 08:31:51;;;;;;;12.95;6.15;;;15.90;99.90;;;;;;5022459;28;20246;-65
2022/09/14 08:34:18;;;;;;;9.73;7.38;;;16.00;99.90;;;;;;5025235;28;20175;-65
2022/09/14 08:36:45;;;;;;;9.13;5.95;;;16.10;99.90;;;;;;5024591;28;20187;-65
2022/09/14 08:39:13;;;;;;;6.93;6.13;;;16.20;99.90;;;;;;5027953;28;20241;-65
2022/09/14 08:41:44;;;;;;;13.10;7.10;;;16.10;99.90;;;;;;5038563;28;20293;-65
2022/09/14 08:44:10;;;;;;;10.00;5.43;;;16.10;99.90;;;;;;5034948;28;20660;-65
2022/09/14 08:46:43;;;;;;;9.25;7.82;;;16.10;99.90;;;;;;5029491;28;20233;-64
2022/09/14 08:49:43;;;;;;;8.13;5.63;;;16.10;99.90;;;;;;5029720;28;20528;-65
2022/09/14 08:52:16;;;;;;;9.05;6.70;;;16.10;99.90;;;;;;5038793;28;20650;-65
2022/09/14 08:54:42;;;;;;;9.52;6.07;;;16.20;99.90;;;;;;5022226;28;20221;-64
2022/09/14 08:57:17;;;;;;;8.93;6.55;;;16.20;99.90;;;;;;5024317;28;20206;-65
2022/09/14 09:00:07;;;;;;;8.88;6.82;;;16.10;99.90;;;;;;5026123;28;20581;-64
2022/09/14 09:02:49;;;;;;;9.45;5.75;;;16.00;99.90;;;;;;5025713;28;20663;-64
2022/09/14 09:05:50;;;;;;;6.88;4.90;;;16.30;99.90;;;;;;5023781;28;20194;-64
2022/09/14 09:08:41;;;;;;;7.60;5.15;;;16.30;99.90;;;;;;5019384;28;20210;-64
2022/09/14 09:11:16;;;;;;;12.38;5.75;;;16.40;99.90;;;;;;5019966;28;20183;-65
2022/09/14 09:13:44;;;;;;;5.18;4.57;;;16.50;99.90;;;;;;5031333;28;20633;-64
2022/09/14 09:16:14;;;;;;;7.85;4.90;;;16.50;99.90;;;;;;5033971;28;20191;-64
2022/09/14 09:18:52;;;;;;;6.38;5.10;;;16.50;99.90;;;;;;5030541;28;20236;-64
2022/09/14 09:21:22;;;;;;;8.32;5.80;;;16.50;99.90;;;;;;5032104;28;20198;-64
2022/09/14 09:23:48;;;;;;;8.30;5.90;;;16.60;99.90;;;;;;5021385;28;20249;-65
2022/09/14 09:26:26;;;;;;;6.72;6.03;;;16.90;99.90;;;;;;5019404;28;20278;-64
2022/09/14 09:28:56;;;;;;;6.65;5.20;;;16.80;99.90;;;;;;5018953;28;20183;-64
2022/09/14 09:31:49;;;;;;;9.57;5.68;;;16.70;99.90;;;;;;5019068;28;20190;-64
2022/09/14 09:34:24;;;;;;;6.03;5.28;;;16.70;99.90;;;;;;5018562;28;20188;-64
2022/09/14 09:36:50;;;;;;;7.03;5.78;;;16.70;99.90;;;;;;5025414;28;20574;-64
2022/09/14 09:39:16;;;;;;;9.65;5.65;;;16.80;99.90;;;;;;5069039;28;20233;-64
2022/09/14 09:41:51;;;;;;;9.00;6.40;;;16.60;99.90;;;;;;5036408;28;20210;-64
2022/09/14 09:44:17;;;;;;;8.13;6.60;;;16.40;99.90;;;;;;5033047;28;20272;-64
2022/09/14 09:47:00;;;;;;;7.88;6.00;;;16.40;99.90;;;;;;5026187;28;20206;-64
2022/09/14 09:49:31;;;;;;;8.38;5.47;;;16.40;99.90;;;;;;5022013;28;20187;-64
2022/09/14 09:52:13;;;;;;;8.95;5.97;;;16.40;99.90;;;;;;5022521;28;20266;-64
2022/09/14 09:54:41;;;;;;;9.38;7.10;;;16.40;99.90;;;;;;5014775;28;20193;-64
2022/09/14 09:57:28;;;;;;;9.82;7.03;;;16.30;99.90;;;;;;5034924;28;20183;-64
2022/09/14 10:00:17;;;;;;;10.82;6.28;;;16.40;99.90;;;;;;5021266;28;20193;-64
2022/09/14 10:02:43;;;;;;;10.80;6.38;;;16.30;99.90;;;;;;5017127;28;20188;-64
2022/09/14 10:05:08;;;;;;;10.48;5.32;;;16.40;99.90;;;;;;5032594;28;20257;-64
2022/09/14 10:07:39;;;;;;;11.25;6.88;;;16.40;99.90;;;;;;5015892;28;20612;-64
2022/09/14 10:10:13;;;;;;;13.35;8.13;;;16.40;99.90;;;;;;5015991;28;20183;-64
2022/09/14 10:12:46;;;;;;;13.32;8.27;;;16.20;99.90;;;;;;5018733;28;20284;-64
2022/09/14 10:15:17;;;;;;;10.80;8.85;;;16.30;99.90;;;;;;5024896;28;20221;-64
2022/09/14 10:17:59;;;;;;;10.45;7.13;;;16.20;99.90;;;;;;5013766;28;20187;-64
2022/09/14 10:20:25;;;;;;;14.80;7.70;;;16.40;99.90;;;;;;5022105;28;20183;-64
2022/09/14 10:22:51;;;;;;;9.55;6.63;;;16.20;99.90;;;;;;5014664;28;20175;-64
2022/09/14 10:25:17;;;;;;;11.95;8.63;;;16.10;99.90;;;;;;5015010;28;20211;-64
2022/09/14 10:27:47;;;;;;;11.65;7.40;;;16.20;99.90;;;;;;5015890;28;20186;-64
2022/09/14 10:30:18;;;;;;;12.07;7.32;;;16.30;99.90;;;;;;5029437;28;20190;-64
2022/09/14 10:33:04;;;;;;;9.98;7.88;;;16.30;99.90;;;;;;5018902;28;20207;-64
2022/09/14 10:35:49;;;;;;;11.05;7.78;;;16.30;99.90;;;;;;5018140;28;20634;-64
2022/09/14 10:38:38;;;;;;;11.15;8.57;;;16.30;99.90;;;;;;5016820;28;20187;-64
2022/09/14 10:41:11;;;;;;;13.63;8.75;;;16.40;99.90;;;;;;5023153;28;20215;-64
2022/09/14 10:44:25;;;;;;;11.93;7.93;;;16.40;99.90;;;;;;5015135;28;20183;-64
2022/09/14 10:47:02;;;;;;;15.43;9.63;;;16.70;99.90;;;;;;5013894;28;20191;-64
2022/09/14 10:49:36;;;;;;;12.52;8.88;;;16.60;99.90;;;;;;5015011;28;20207;-65
2022/09/14 10:52:14;;;;;;;9.18;6.80;;;16.50;99.90;;;;;;5022609;28;20187;-64
2022/09/14 10:54:48;;;;;;;12.35;7.63;;;16.30;99.90;;;;;;5013444;28;20209;-64
2022/09/14 10:57:14;;;;;;;11.32;8.00;;;16.30;99.90;;;;;;5014483;28;20174;-62
2022/09/14 10:59:52;;;;;;;12.35;7.78;;;16.20;99.90;;;;;;5014585;28;20190;-62
2022/09/14 11:02:55;;;;;;;13.90;9.27;;;16.20;99.90;;;;;;5013854;28;20648;-62
2022/09/14 11:05:33;;;;;;;12.85;7.68;;;16.20;99.90;;;;;;4976386;28;20208;-63
2022/09/14 11:08:10;;;;;;;14.27;9.38;;;16.30;99.90;;;;;;5015722;28;20656;-62
2022/09/14 11:10:41;;;;;;;11.13;8.82;;;16.20;99.90;;;;;;5032510;28;20209;-63
2022/09/14 11:13:29;;;;;;;14.75;9.23;;;16.20;99.90;;;;;;5028438;28;20542;-62
2022/09/14 11:16:25;;;;;;;16.88;10.50;;;16.20;99.90;;;;;;5026720;28;20609;-67
2022/09/14 11:19:23;;;;;;;19.48;11.75;;;16.20;99.90;;;;;;5021157;28;20193;-66
2022/09/14 11:22:02;;;;;;;20.42;12.77;;;16.20;99.90;;;;;;5006857;28;20226;-67
2022/09/14 11:24:49;;;;;;;14.57;11.23;;;16.40;99.90;;;;;;5021413;28;20191;-67
2022/09/14 11:27:24;;;;;;;15.85;10.15;;;16.40;99.90;;;;;;5018562;28;20623;-67
2022/09/14 11:29:58;;;;;;;16.77;11.18;;;16.20;99.90;;;;;;5031978;28;20181;-66
2022/09/14 11:32:27;;;;;;;16.02;10.27;;;16.20;99.90;;;;;;5019407;28;20210;-67
2022/09/14 11:35:09;;;;;;;16.67;11.27;;;16.10;99.90;;;;;;5022630;28;20175;-66
2022/09/14 11:37:41;;;;;;;17.85;9.90;;;16.10;99.90;;;;;;5012801;28;20526;-65
2022/09/14 11:40:30;;;;;;;14.77;10.00;;;16.20;99.90;;;;;;5013979;28;20179;-64
2022/09/14 11:43:04;;;;;;;12.05;8.57;;;16.10;99.90;;;;;;5013673;28;20273;-64
2022/09/14 11:46:04;;;;;;;14.38;9.05;;;16.00;99.90;;;;;;5013909;28;20179;-65
2022/09/14 11:48:42;;;;;;;20.42;10.95;;;16.10;99.90;;;;;;5013672;28;20206;-65
2022/09/14 11:51:19;;;;;;;15.23;8.68;;;16.10;99.90;;;;;;5024637;28;20183;-64
2022/09/14 11:53:45;;;;;;;11.90;8.48;;;16.20;99.90;;;;;;5025402;28;20548;-64
2022/09/14 11:56:34;;;;;;;15.43;8.70;;;16.10;99.90;;;;;;5014881;28;20179;-64
2022/09/14 11:59:06;;;;;;;13.73;10.15;;;16.10;99.90;;;;;;5019205;28;20576;-64
2022/09/14 12:01:40;;;;;;;12.00;9.43;;;16.20;99.90;;;;;;5013242;28;20191;-64
2022/09/14 12:04:09;;;;;;;12.27;8.77;;;16.30;99.90;;;;;;5012761;28;20198;-64
2022/09/14 12:06:34;;;;;;;11.75;8.52;;;16.20;99.90;;;;;;5022347;28;20193;-64
2022/09/14 12:09:23;;;;;;;11.68;8.85;;;16.10;99.90;;;;;;5020015;28;20183;-65
2022/09/14 12:11:49;;;;;;;16.20;9.25;;;16.30;99.90;;;;;;5019403;28;20197;-64
2022/09/14 12:14:28;;;;;;;10.85;8.98;;;16.30;99.90;;;;;;5013202;28;20187;-64
2022/09/14 12:17:04;;;;;;;13.98;9.70;;;16.30;99.90;;;;;;5013403;28;20187;-64
2022/09/14 12:19:31;;;;;;;11.82;7.20;;;16.30;99.90;;;;;;5059003;28;20178;-64
2022/09/14 12:22:17;;;;;;;11.85;7.82;;;16.30;99.90;;;;;;5019236;28;20205;-64
2022/09/14 12:24:43;;;;;;;8.48;6.97;;;16.40;99.90;;;;;;5019871;28;20179;-64
2022/09/14 12:27:21;;;;;;;9.20;6.90;;;16.40;99.90;;;;;;5048557;28;20194;-64
2022/09/14 12:29:46;;;;;;;14.73;9.13;;;16.30;99.90;;;;;;5012774;28;20186;-64
2022/09/14 12:32:38;;;;;;;13.50;8.07;;;16.30;99.90;;;;;;5013185;28;20184;-64
2022/09/14 12:35:37;;;;;;;12.48;8.57;;;16.50;99.90;;;;;;5044902;28;20179;-64
2022/09/14 12:38:38;;;;;;;9.13;6.75;;;16.60;99.90;;;;;;5013009;28;20198;-65
2022/09/14 12:41:10;;;;;;;9.10;6.80;;;16.40;99.90;;;;;;5013093;28;20205;-64
2022/09/14 12:43:35;;;;;;;8.80;6.07;;;16.40;99.90;;;;;;5025941;28;20229;-65
2022/09/14 12:46:21;;;;;;;8.95;6.22;;;16.40;99.90;;;;;;5012952;28;20681;-64
2022/09/14 12:51:31;;;;;;;7.72;6.72;;;16.70;99.90;;;;;;5018834;28;20539;-63
2022/09/14 12:54:15;;;;;;;7.55;6.05;;;16.60;99.90;;;;;;5030127;28;20273;-64
2022/09/14 12:57:02;;;;;;;9.63;5.85;;;16.70;99.90;;;;;;5021236;28;20178;-64
2022/09/14 12:59:39;;;;;;;9.13;6.30;;;16.80;99.90;;;;;;5031639;28;20538;-64
2022/09/14 13:02:39;;;;;;;7.05;6.00;;;16.80;99.90;;;;;;5027115;28;20206;-63
2022/09/14 13:05:11;;;;;;;7.13;6.07;;;16.70;99.90;;;;;;5013073;28;20603;-63
2022/09/14 13:07:38;;;;;;;8.35;6.57;;;16.80;99.90;;;;;;5022919;28;20271;-63